In Rescue
 
Open Full Screen Window  High Contrast Mode
Wind Gusting 00 knots
05
July 10, 2020 11:55 AM CDT
Weather Information
Wind Direction
  300 °
Wind Speed
  05 kt (6 mph)
Wind Gust
  00 kt (0 mph)
Altimeter
30.00 in
Visibility
10 SM
Temperature
25° C
77° F
Dewpoint
14° C
57° F
Humidity
51%
1hr Rain Fall
00.00 in.
24hr Rain Fall
00.00 in.
Sky Condition
Clear
VFR

METAR KULM 101655Z AUTO 30005KT 10SM CLR 25/14 A3000 RMK AO2

FAA Disclaimer: The data displayed is for advisory purposes only and is not to be used for flight planning or operations.